Currituck — AEFR — position and weather

sailwx.info

Track history (hours):
 
Tides and Currents Weather Stations Pressure Air Temp Water Temp Dewpoint Dewpoint Depression Visibility Wind Speed Wind Dir Waves Ship Positions

Currituck

Last reported at 2017-Feb-25 13:34 UTC. Time now 2017-Feb-25 13:48 UTC.
Position N 31°52' W 081°05'.

Length 45 m; draft 3 m.

Type: Dredging. MMSI: 369970446.

Date/timePositionNaut miles runAvg speedWind from/ knotsBaromVisibWave heightAir tempDewpointWater temp
2017-Feb-25 13:34N 31°52' W 081°05'6 5.7
2017-Feb-25 12:33N 31°57' W 081°04'4 4.2
2017-Feb-25 11:33N 32°01' W 081°03'0 0.0
2017-Feb-25 10:33N 32°01' W 081°03'2 2.5
2017-Feb-25 09:33N 32°04' W 081°02'6 5.5
2017-Feb-25 08:34N 32°05' W 080°55'7 6.6
2017-Feb-25 07:33N 32°09' W 080°49'7 7.2
2017-Feb-25 06:33N 32°15' W 080°45'7 6.6
2017-Feb-25 05:28N 32°21' W 080°40'  
Track history (hours):
 
Tides and Currents Weather Stations Pressure Air Temp Water Temp Dewpoint Dewpoint Depression Visibility Wind Speed Wind Dir Waves Ship Positions

Currituck

Last reported at 2017-Feb-25 13:34 UTC. Time now 2017-Feb-25 13:48 UTC.
Position N 31°52' W 081°05'.

Length 45 m; draft 3 m.

Type: Dredging. MMSI: 369970446.

Date/timePositionNaut miles runAvg speedWind from/ knotsBaromVisibWave heightAir tempDewpointWater temp
2017-Feb-25 13:34N 31°52' W 081°05'6 5.7
2017-Feb-25 12:33N 31°57' W 081°04'4 4.2
2017-Feb-25 11:33N 32°01' W 081°03'0 0.0
2017-Feb-25 10:33N 32°01' W 081°03'2 2.5
2017-Feb-25 09:33N 32°04' W 081°02'6 5.5
2017-Feb-25 08:34N 32°05' W 080°55'7 6.6
2017-Feb-25 07:33N 32°09' W 080°49'7 7.2
2017-Feb-25 06:33N 32°15' W 080°45'7 6.6
2017-Feb-25 05:28N 32°21' W 080°40'  

Dump ship's entire track history